Kathy C — 2CTI7 — position and weather

sailwx.info

Track history (hours):
 
Tides and Currents Weather Stations Pressure Air Temp Water Temp Dewpoint Dewpoint Depression Visibility Wind Speed Wind Dir Waves Ship Positions

Kathy C

Last reported at 2017-Apr-29 08:58 UTC. Time now 2017-Apr-29 09:24 UTC.
Position N 53°20' E 008°29'.

Length 106 m; draft 6.8 m.

Type: Cargo ship. MMSI: 235075591.

Date/timePositionNaut miles runAvg speedWind from/ knotsBaromVisibWave heightAir tempDewpointWater temp
2017-Apr-29 08:58N 53°20' E 008°29'0 0.0
2017-Apr-29 08:29N 53°20' E 008°29'0 0.0
2017-Apr-29 07:53N 53°20' E 008°29'0 0.0
2017-Apr-29 07:29N 53°20' E 008°29'0 0.0
2017-Apr-29 06:58N 53°20' E 008°29'0 0.0
2017-Apr-29 06:29N 53°20' E 008°29'0 0.0
2017-Apr-29 05:58N 53°20' E 008°29'0 0.0
2017-Apr-29 05:29N 53°20' E 008°29'0 0.0
2017-Apr-29 05:00N 53°20' E 008°29'2 4.2
2017-Apr-29 04:30N 53°22' E 008°30'4 8.4
2017-Apr-29 04:00N 53°26' E 008°29'4 8.4
2017-Apr-29 03:30N 53°30' E 008°31'2 2.9
2017-Apr-29 02:57N 53°31' E 008°33'0 0.1
2017-Apr-29 02:27N 53°31' E 008°33'0 0.1
2017-Apr-29 02:00N 53°31' E 008°33'0 0.0
2017-Apr-29 01:30N 53°31' E 008°33'0 0.0
2017-Apr-29 00:51N 53°31' E 008°33'0 0.0
2017-Apr-29 00:30N 53°31' E 008°33'0 0.0
2017-Apr-29 00:00N 53°31' E 008°33'0 0.0
2017-Apr-28 23:27N 53°31' E 008°33'0 0.0
2017-Apr-28 23:00N 53°31' E 008°33'0 0.0
2017-Apr-28 22:30N 53°31' E 008°33'0 0.1
2017-Apr-28 22:00N 53°31' E 008°33'0 0.0
2017-Apr-28 21:30N 53°31' E 008°33'0 0.3
2017-Apr-28 20:57N 53°31' E 008°34'0 0.1
2017-Apr-28 20:30N 53°31' E 008°34'0 0.0
2017-Apr-28 20:00N 53°31' E 008°34'0 0.0
2017-Apr-28 19:30N 53°31' E 008°34'0 0.0
2017-Apr-28 19:00N 53°31' E 008°34'0 0.0
2017-Apr-28 18:30N 53°31' E 008°34'0 0.2
2017-Apr-28 18:00N 53°31' E 008°34'0 0.4
2017-Apr-28 17:30N 53°31' E 008°34'0 0.1
2017-Apr-28 16:57N 53°31' E 008°34'0 0.0
2017-Apr-28 16:30N 53°31' E 008°34'0 0.1
2017-Apr-28 16:00N 53°31' E 008°34'0 0.1
2017-Apr-28 15:30N 53°31' E 008°34'0 0.0
2017-Apr-28 15:00N 53°31' E 008°34'0 0.1
2017-Apr-28 14:00N 53°31' E 008°33'0 0.1
2017-Apr-28 13:30N 53°31' E 008°33'0 0.0
2017-Apr-28 12:57N 53°31' E 008°33'0 0.0
2017-Apr-28 12:30N 53°31' E 008°33'0 0.0
2017-Apr-28 12:00N 53°31' E 008°33'0 0.0
2017-Apr-28 11:27N 53°31' E 008°33'0 0.0
2017-Apr-28 11:00N 53°31' E 008°33'0 0.0
2017-Apr-28 10:30N 53°31' E 008°33'0 0.0
2017-Apr-28 10:00N 53°31' E 008°33'0 0.0
2017-Apr-28 09:30N 53°31' E 008°33'0 0.2
2017-Apr-28 08:57N 53°31' E 008°34'0 0.1
2017-Apr-28 08:30N 53°31' E 008°34'0 0.1
2017-Apr-28 07:57N 53°31' E 008°34'0 0.0
2017-Apr-28 07:30N 53°31' E 008°34'0 0.0
2017-Apr-28 07:00N 53°31' E 008°34'0 0.0
2017-Apr-28 06:30N 53°31' E 008°34'0 0.0
2017-Apr-28 05:54N 53°31' E 008°34'0 0.0
2017-Apr-28 05:30N 53°31' E 008°34'0 0.0
2017-Apr-28 05:00N 53°31' E 008°34'0 0.0
2017-Apr-28 04:30N 53°31' E 008°34'0 0.0
2017-Apr-28 03:57N 53°31' E 008°34'0 0.0
2017-Apr-28 03:30N 53°31' E 008°34'0 0.0
2017-Apr-28 02:57N 53°31' E 008°34'0 0.1
2017-Apr-28 02:27N 53°31' E 008°33'0 0.3
2017-Apr-28 02:00N 53°31' E 008°33'0 0.0
2017-Apr-28 01:30N 53°31' E 008°33'0 0.0
2017-Apr-28 01:00N 53°31' E 008°33'0 0.0
2017-Apr-28 00:30N 53°31' E 008°33'0 0.0
2017-Apr-27 23:57N 53°31' E 008°33'0 0.0
2017-Apr-27 23:30N 53°31' E 008°33'0 0.0
2017-Apr-27 23:00N 53°31' E 008°33'0 0.0
2017-Apr-27 22:30N 53°31' E 008°33'0 0.0
2017-Apr-27 22:00N 53°31' E 008°33'0 0.0
2017-Apr-27 21:30N 53°31' E 008°33'0 0.0
2017-Apr-27 20:57N 53°31' E 008°33'0 0.4
2017-Apr-27 20:30N 53°31' E 008°34'2 3.5
2017-Apr-27 20:00N 53°33' E 008°33'4 8.7
2017-Apr-27 19:30N 53°37' E 008°29'4 8.9
2017-Apr-27 19:00N 53°39' E 008°24'4 8.5
2017-Apr-27 18:30N 53°42' E 008°18'4 8.5
2017-Apr-27 18:00N 53°45' E 008°12'4 8.4
2017-Apr-27 17:30N 53°48' E 008°08'4 8.5
2017-Apr-27 17:00N 53°51' E 008°02'5 8.8
2017-Apr-27 16:29N 53°53' E 007°55'4 7.4
2017-Apr-27 15:58N 53°56' E 007°58'5 9.6
2017-Apr-27 15:30N 53°59' E 008°03'510.0
2017-Apr-27 14:57N 54°00' E 008°12'1011.0
2017-Apr-27 14:00N 53°59' E 008°30'510.4
2017-Apr-27 13:30N 53°57' E 008°38'5 9.0
2017-Apr-27 13:00N 53°53' E 008°43'4 7.7
2017-Apr-27 12:30N 53°51' E 008°47'4 7.4
2017-Apr-27 12:00N 53°51' E 008°53'4 7.1
2017-Apr-27 11:30N 53°51' E 008°59'3 6.7
2017-Apr-27 11:00N 53°52' E 009°04'3 5.7
2017-Apr-27 10:31N 53°54' E 009°09'0 0.0
2017-Apr-27 10:00N 53°54' E 009°09'2 3.4
2017-Apr-27 09:30N 53°55' E 009°11'4 8.7
2017-Apr-27 09:00N 53°58' E 009°16'4 8.6
2017-Apr-27 08:30N 54°02' E 009°18'62 4.8
2017-Apr-26 19:37N 54°35' E 010°48'1 9.6
2017-Apr-26 19:30N 54°35' E 010°50'5 9.8
2017-Apr-26 19:00N 54°36' E 010°58'510.4
2017-Apr-26 18:30N 54°36' E 011°07'510.0
2017-Apr-26 18:00N 54°35' E 011°16'510.2
2017-Apr-26 17:30N 54°33' E 011°24'5 9.9
2017-Apr-26 17:00N 54°31' E 011°31'5 9.6
2017-Apr-26 16:30N 54°29' E 011°39'510.2
2017-Apr-26 16:00N 54°27' E 011°47'1310.3
2017-Apr-26 14:47N 54°27' E 012°09'3 9.3
2017-Apr-26 14:30N 54°29' E 012°11'1010.0
2017-Apr-26 13:30N 54°38' E 012°19'510.1
2017-Apr-26 13:00N 54°41' E 012°26'85 9.5
2017-Apr-26 04:01N 54°45' E 014°53'1 9.4
2017-Apr-26 03:57N 54°45' E 014°54'5 9.3
2017-Apr-26 03:28N 54°47' E 015°01'5 9.3
2017-Apr-26 02:59N 54°49' E 015°08'6 9.2
2017-Apr-26 02:16N 54°52' E 015°18'5 9.4
2017-Apr-26 01:41N 54°55' E 015°27'8 9.4
2017-Apr-26 00:52N 54°58' E 015°39'  
2017-Apr-21 16:53N 53°33' E 014°36'4 9.2
2017-Apr-21 16:30N 53°30' E 014°38'4 7.9
2017-Apr-21 16:01N 53°26' E 014°35'0 0.5
2017-Apr-21 15:29N 53°27' E 014°35'0 0.0
2017-Apr-21 14:59N 53°27' E 014°35'0 0.0
2017-Apr-21 14:29N 53°27' E 014°35'0 0.0
2017-Apr-21 13:29N 53°27' E 014°35'0 0.0
2017-Apr-21 12:59N 53°27' E 014°35'0 0.0
2017-Apr-21 12:29N 53°27' E 014°35'0 0.0
2017-Apr-21 11:59N 53°27' E 014°35'0 0.0
2017-Apr-21 11:29N 53°27' E 014°35'0 0.0
2017-Apr-21 10:59N 53°27' E 014°35'0 0.0
2017-Apr-21 10:29N 53°27' E 014°35'0 0.0
2017-Apr-21 09:58N 53°27' E 014°35'0 0.0
2017-Apr-21 09:28N 53°27' E 014°35'0 0.0
2017-Apr-21 08:59N 53°27' E 014°35'0 0.0
2017-Apr-21 08:29N 53°27' E 014°35'0 0.0
2017-Apr-21 07:55N 53°27' E 014°35'0 0.0
2017-Apr-21 07:29N 53°27' E 014°35'0 0.0
2017-Apr-21 06:59N 53°27' E 014°35'0 0.0
2017-Apr-21 06:28N 53°27' E 014°35'0 0.0
2017-Apr-21 05:59N 53°27' E 014°35'0 0.0
2017-Apr-21 05:29N 53°27' E 014°35'0 0.0
2017-Apr-21 04:59N 53°27' E 014°35'0 0.0
2017-Apr-21 04:28N 53°27' E 014°35'0 0.0
2017-Apr-21 03:59N 53°27' E 014°35'0 0.0
2017-Apr-21 03:29N 53°27' E 014°35'0 0.0
2017-Apr-21 02:59N 53°27' E 014°35'0 0.0
2017-Apr-21 02:29N 53°27' E 014°35'0 0.0
2017-Apr-21 01:59N 53°27' E 014°35'0 0.0
2017-Apr-21 01:26N 53°27' E 014°35'0 0.0
2017-Apr-21 00:59N 53°27' E 014°35'0 0.0
2017-Apr-21 00:28N 53°27' E 014°35'0 0.0
2017-Apr-20 23:58N 53°27' E 014°35'0 0.0
2017-Apr-20 23:28N 53°27' E 014°35'0 0.0
2017-Apr-20 22:59N 53°27' E 014°35'0 0.0
2017-Apr-20 22:28N 53°27' E 014°35'0 0.0
2017-Apr-20 21:58N 53°27' E 014°35'0 0.0
2017-Apr-20 21:29N 53°27' E 014°35'0 0.0
2017-Apr-20 20:59N 53°27' E 014°35'0 0.0
2017-Apr-20 20:29N 53°27' E 014°35'0 0.0
2017-Apr-20 19:56N 53°27' E 014°35'0 0.0
2017-Apr-20 19:29N 53°27' E 014°35'0 0.0
2017-Apr-20 18:59N 53°27' E 014°35'0 0.0
2017-Apr-20 18:29N 53°27' E 014°35'0 0.0
2017-Apr-20 17:59N 53°27' E 014°35'0 0.0
2017-Apr-20 17:29N 53°27' E 014°35'0 0.0
2017-Apr-20 16:59N 53°27' E 014°35'0 0.0
2017-Apr-20 16:29N 53°27' E 014°35'0 0.0
2017-Apr-20 15:55N 53°27' E 014°35'0 0.0
2017-Apr-20 15:29N 53°27' E 014°35'0 0.0
2017-Apr-20 14:59N 53°27' E 014°35'0 0.0
2017-Apr-20 13:58N 53°27' E 014°35'0 0.0
2017-Apr-20 13:28N 53°27' E 014°35'0 0.0
2017-Apr-20 12:59N 53°27' E 014°35'0 0.0
2017-Apr-20 12:29N 53°27' E 014°35'0 0.0
2017-Apr-20 11:59N 53°27' E 014°35'0 0.0
2017-Apr-20 11:29N 53°27' E 014°35'0 0.0
2017-Apr-20 10:59N 53°27' E 014°35'0 0.0
2017-Apr-20 10:29N 53°27' E 014°35'0 0.0
2017-Apr-20 09:59N 53°27' E 014°35'0 0.0
2017-Apr-20 09:29N 53°27' E 014°35'0 0.0
2017-Apr-20 08:59N 53°27' E 014°35'0 0.0
2017-Apr-20 08:29N 53°27' E 014°35'0 0.0
2017-Apr-20 07:58N 53°27' E 014°35'0 0.0
2017-Apr-20 07:28N 53°27' E 014°35'0 0.0
2017-Apr-20 06:58N 53°27' E 014°35'0 0.0
2017-Apr-20 06:29N 53°27' E 014°35'0 0.0
2017-Apr-20 05:58N 53°27' E 014°35'0 0.0
2017-Apr-20 05:29N 53°27' E 014°35'0 0.0
2017-Apr-20 04:59N 53°27' E 014°35'0 0.0
2017-Apr-20 04:29N 53°27' E 014°35'0 0.0
2017-Apr-20 03:59N 53°27' E 014°35'0 0.0
2017-Apr-20 03:29N 53°27' E 014°35'0 0.0
2017-Apr-20 02:59N 53°27' E 014°35'0 0.0
2017-Apr-20 02:29N 53°27' E 014°35'0 0.0
2017-Apr-20 01:59N 53°27' E 014°35'0 0.0
2017-Apr-20 01:29N 53°27' E 014°35'0 0.0
2017-Apr-20 00:59N 53°27' E 014°35'0 0.0
2017-Apr-20 00:29N 53°27' E 014°35'0 0.0
2017-Apr-19 23:56N 53°27' E 014°35'0 0.0
2017-Apr-19 23:29N 53°27' E 014°35'0 0.0
2017-Apr-19 22:59N 53°27' E 014°35'0 0.0
2017-Apr-19 22:29N 53°27' E 014°35'0 0.0
2017-Apr-19 21:58N 53°27' E 014°35'0 0.0
2017-Apr-19 21:29N 53°27' E 014°35'0 0.0
2017-Apr-19 20:56N 53°27' E 014°35'0 0.0
2017-Apr-19 20:26N 53°27' E 014°35'0 0.0
2017-Apr-19 19:58N 53°27' E 014°35'0 0.0
2017-Apr-19 19:29N 53°27' E 014°35'0 0.0
2017-Apr-19 18:59N 53°27' E 014°35'0 0.0
2017-Apr-19 18:29N 53°27' E 014°35'0 0.0
2017-Apr-19 17:58N 53°27' E 014°35'0 0.0
2017-Apr-19 17:29N 53°27' E 014°35'0 0.0
2017-Apr-19 16:59N 53°27' E 014°35'0 0.0
2017-Apr-19 16:28N 53°27' E 014°35'0 0.0
2017-Apr-19 15:58N 53°27' E 014°35'0 0.0
2017-Apr-19 15:29N 53°27' E 014°35'0 0.0
2017-Apr-19 14:59N 53°27' E 014°35'0 0.0
2017-Apr-19 14:28N 53°27' E 014°35'0 0.2
2017-Apr-19 13:30N 53°26' E 014°35'2 4.5
2017-Apr-19 13:00N 53°24' E 014°37'0 0.0
2017-Apr-19 12:30N 53°24' E 014°37'0 0.0
2017-Apr-19 11:57N 53°24' E 014°37'0 0.0
2017-Apr-19 11:30N 53°24' E 014°37'0 0.0
2017-Apr-19 11:00N 53°24' E 014°37'0 0.0
2017-Apr-19 10:30N 53°24' E 014°37'0 0.0
2017-Apr-19 10:00N 53°24' E 014°37'0 0.0
2017-Apr-19 09:24N 53°24' E 014°37'  
Track history (hours):
 
Tides and Currents Weather Stations Pressure Air Temp Water Temp Dewpoint Dewpoint Depression Visibility Wind Speed Wind Dir Waves Ship Positions

Kathy C

Last reported at 2017-Apr-29 08:58 UTC. Time now 2017-Apr-29 09:24 UTC.
Position N 53°20' E 008°29'.

Length 106 m; draft 6.8 m.

Type: Cargo ship. MMSI: 235075591.

Date/timePositionNaut miles runAvg speedWind from/ knotsBaromVisibWave heightAir tempDewpointWater temp
2017-Apr-29 08:58N 53°20' E 008°29'0 0.0
2017-Apr-29 08:29N 53°20' E 008°29'0 0.0
2017-Apr-29 07:53N 53°20' E 008°29'0 0.0
2017-Apr-29 07:29N 53°20' E 008°29'0 0.0
2017-Apr-29 06:58N 53°20' E 008°29'0 0.0
2017-Apr-29 06:29N 53°20' E 008°29'0 0.0
2017-Apr-29 05:58N 53°20' E 008°29'0 0.0
2017-Apr-29 05:29N 53°20' E 008°29'0 0.0
2017-Apr-29 05:00N 53°20' E 008°29'2 4.2
2017-Apr-29 04:30N 53°22' E 008°30'4 8.4
2017-Apr-29 04:00N 53°26' E 008°29'4 8.4
2017-Apr-29 03:30N 53°30' E 008°31'2 2.9
2017-Apr-29 02:57N 53°31' E 008°33'0 0.1
2017-Apr-29 02:27N 53°31' E 008°33'0 0.1
2017-Apr-29 02:00N 53°31' E 008°33'0 0.0
2017-Apr-29 01:30N 53°31' E 008°33'0 0.0
2017-Apr-29 00:51N 53°31' E 008°33'0 0.0
2017-Apr-29 00:30N 53°31' E 008°33'0 0.0
2017-Apr-29 00:00N 53°31' E 008°33'0 0.0
2017-Apr-28 23:27N 53°31' E 008°33'0 0.0
2017-Apr-28 23:00N 53°31' E 008°33'0 0.0
2017-Apr-28 22:30N 53°31' E 008°33'0 0.1
2017-Apr-28 22:00N 53°31' E 008°33'0 0.0
2017-Apr-28 21:30N 53°31' E 008°33'0 0.3
2017-Apr-28 20:57N 53°31' E 008°34'0 0.1
2017-Apr-28 20:30N 53°31' E 008°34'0 0.0
2017-Apr-28 20:00N 53°31' E 008°34'0 0.0
2017-Apr-28 19:30N 53°31' E 008°34'0 0.0
2017-Apr-28 19:00N 53°31' E 008°34'0 0.0
2017-Apr-28 18:30N 53°31' E 008°34'0 0.2
2017-Apr-28 18:00N 53°31' E 008°34'0 0.4
2017-Apr-28 17:30N 53°31' E 008°34'0 0.1
2017-Apr-28 16:57N 53°31' E 008°34'0 0.0
2017-Apr-28 16:30N 53°31' E 008°34'0 0.1
2017-Apr-28 16:00N 53°31' E 008°34'0 0.1
2017-Apr-28 15:30N 53°31' E 008°34'0 0.0
2017-Apr-28 15:00N 53°31' E 008°34'0 0.1
2017-Apr-28 14:00N 53°31' E 008°33'0 0.1
2017-Apr-28 13:30N 53°31' E 008°33'0 0.0
2017-Apr-28 12:57N 53°31' E 008°33'0 0.0
2017-Apr-28 12:30N 53°31' E 008°33'0 0.0
2017-Apr-28 12:00N 53°31' E 008°33'0 0.0
2017-Apr-28 11:27N 53°31' E 008°33'0 0.0
2017-Apr-28 11:00N 53°31' E 008°33'0 0.0
2017-Apr-28 10:30N 53°31' E 008°33'0 0.0
2017-Apr-28 10:00N 53°31' E 008°33'0 0.0
2017-Apr-28 09:30N 53°31' E 008°33'0 0.2
2017-Apr-28 08:57N 53°31' E 008°34'0 0.1
2017-Apr-28 08:30N 53°31' E 008°34'0 0.1
2017-Apr-28 07:57N 53°31' E 008°34'0 0.0
2017-Apr-28 07:30N 53°31' E 008°34'0 0.0
2017-Apr-28 07:00N 53°31' E 008°34'0 0.0
2017-Apr-28 06:30N 53°31' E 008°34'0 0.0
2017-Apr-28 05:54N 53°31' E 008°34'0 0.0
2017-Apr-28 05:30N 53°31' E 008°34'0 0.0
2017-Apr-28 05:00N 53°31' E 008°34'0 0.0
2017-Apr-28 04:30N 53°31' E 008°34'0 0.0
2017-Apr-28 03:57N 53°31' E 008°34'0 0.0
2017-Apr-28 03:30N 53°31' E 008°34'0 0.0
2017-Apr-28 02:57N 53°31' E 008°34'0 0.1
2017-Apr-28 02:27N 53°31' E 008°33'0 0.3
2017-Apr-28 02:00N 53°31' E 008°33'0 0.0
2017-Apr-28 01:30N 53°31' E 008°33'0 0.0
2017-Apr-28 01:00N 53°31' E 008°33'0 0.0
2017-Apr-28 00:30N 53°31' E 008°33'0 0.0
2017-Apr-27 23:57N 53°31' E 008°33'0 0.0
2017-Apr-27 23:30N 53°31' E 008°33'0 0.0
2017-Apr-27 23:00N 53°31' E 008°33'0 0.0
2017-Apr-27 22:30N 53°31' E 008°33'0 0.0
2017-Apr-27 22:00N 53°31' E 008°33'0 0.0
2017-Apr-27 21:30N 53°31' E 008°33'0 0.0
2017-Apr-27 20:57N 53°31' E 008°33'0 0.4
2017-Apr-27 20:30N 53°31' E 008°34'2 3.5
2017-Apr-27 20:00N 53°33' E 008°33'4 8.7
2017-Apr-27 19:30N 53°37' E 008°29'4 8.9
2017-Apr-27 19:00N 53°39' E 008°24'4 8.5
2017-Apr-27 18:30N 53°42' E 008°18'4 8.5
2017-Apr-27 18:00N 53°45' E 008°12'4 8.4
2017-Apr-27 17:30N 53°48' E 008°08'4 8.5
2017-Apr-27 17:00N 53°51' E 008°02'5 8.8
2017-Apr-27 16:29N 53°53' E 007°55'4 7.4
2017-Apr-27 15:58N 53°56' E 007°58'5 9.6
2017-Apr-27 15:30N 53°59' E 008°03'510.0
2017-Apr-27 14:57N 54°00' E 008°12'1011.0
2017-Apr-27 14:00N 53°59' E 008°30'510.4
2017-Apr-27 13:30N 53°57' E 008°38'5 9.0
2017-Apr-27 13:00N 53°53' E 008°43'4 7.7
2017-Apr-27 12:30N 53°51' E 008°47'4 7.4
2017-Apr-27 12:00N 53°51' E 008°53'4 7.1
2017-Apr-27 11:30N 53°51' E 008°59'3 6.7
2017-Apr-27 11:00N 53°52' E 009°04'3 5.7
2017-Apr-27 10:31N 53°54' E 009°09'0 0.0
2017-Apr-27 10:00N 53°54' E 009°09'2 3.4
2017-Apr-27 09:30N 53°55' E 009°11'4 8.7
2017-Apr-27 09:00N 53°58' E 009°16'4 8.6
2017-Apr-27 08:30N 54°02' E 009°18'62 4.8
2017-Apr-26 19:37N 54°35' E 010°48'1 9.6
2017-Apr-26 19:30N 54°35' E 010°50'5 9.8
2017-Apr-26 19:00N 54°36' E 010°58'510.4
2017-Apr-26 18:30N 54°36' E 011°07'510.0
2017-Apr-26 18:00N 54°35' E 011°16'510.2
2017-Apr-26 17:30N 54°33' E 011°24'5 9.9
2017-Apr-26 17:00N 54°31' E 011°31'5 9.6
2017-Apr-26 16:30N 54°29' E 011°39'510.2
2017-Apr-26 16:00N 54°27' E 011°47'1310.3
2017-Apr-26 14:47N 54°27' E 012°09'3 9.3
2017-Apr-26 14:30N 54°29' E 012°11'1010.0
2017-Apr-26 13:30N 54°38' E 012°19'510.1
2017-Apr-26 13:00N 54°41' E 012°26'85 9.5
2017-Apr-26 04:01N 54°45' E 014°53'1 9.4
2017-Apr-26 03:57N 54°45' E 014°54'5 9.3
2017-Apr-26 03:28N 54°47' E 015°01'5 9.3
2017-Apr-26 02:59N 54°49' E 015°08'6 9.2
2017-Apr-26 02:16N 54°52' E 015°18'5 9.4
2017-Apr-26 01:41N 54°55' E 015°27'8 9.4
2017-Apr-26 00:52N 54°58' E 015°39'  
2017-Apr-21 16:53N 53°33' E 014°36'4 9.2
2017-Apr-21 16:30N 53°30' E 014°38'4 7.9
2017-Apr-21 16:01N 53°26' E 014°35'0 0.5
2017-Apr-21 15:29N 53°27' E 014°35'0 0.0
2017-Apr-21 14:59N 53°27' E 014°35'0 0.0
2017-Apr-21 14:29N 53°27' E 014°35'0 0.0
2017-Apr-21 13:29N 53°27' E 014°35'0 0.0
2017-Apr-21 12:59N 53°27' E 014°35'0 0.0
2017-Apr-21 12:29N 53°27' E 014°35'0 0.0
2017-Apr-21 11:59N 53°27' E 014°35'0 0.0
2017-Apr-21 11:29N 53°27' E 014°35'0 0.0
2017-Apr-21 10:59N 53°27' E 014°35'0 0.0
2017-Apr-21 10:29N 53°27' E 014°35'0 0.0
2017-Apr-21 09:58N 53°27' E 014°35'0 0.0
2017-Apr-21 09:28N 53°27' E 014°35'0 0.0
2017-Apr-21 08:59N 53°27' E 014°35'0 0.0
2017-Apr-21 08:29N 53°27' E 014°35'0 0.0
2017-Apr-21 07:55N 53°27' E 014°35'0 0.0
2017-Apr-21 07:29N 53°27' E 014°35'0 0.0
2017-Apr-21 06:59N 53°27' E 014°35'0 0.0
2017-Apr-21 06:28N 53°27' E 014°35'0 0.0
2017-Apr-21 05:59N 53°27' E 014°35'0 0.0
2017-Apr-21 05:29N 53°27' E 014°35'0 0.0
2017-Apr-21 04:59N 53°27' E 014°35'0 0.0
2017-Apr-21 04:28N 53°27' E 014°35'0 0.0
2017-Apr-21 03:59N 53°27' E 014°35'0 0.0
2017-Apr-21 03:29N 53°27' E 014°35'0 0.0
2017-Apr-21 02:59N 53°27' E 014°35'0 0.0
2017-Apr-21 02:29N 53°27' E 014°35'0 0.0
2017-Apr-21 01:59N 53°27' E 014°35'0 0.0
2017-Apr-21 01:26N 53°27' E 014°35'0 0.0
2017-Apr-21 00:59N 53°27' E 014°35'0 0.0
2017-Apr-21 00:28N 53°27' E 014°35'0 0.0
2017-Apr-20 23:58N 53°27' E 014°35'0 0.0
2017-Apr-20 23:28N 53°27' E 014°35'0 0.0
2017-Apr-20 22:59N 53°27' E 014°35'0 0.0
2017-Apr-20 22:28N 53°27' E 014°35'0 0.0
2017-Apr-20 21:58N 53°27' E 014°35'0 0.0
2017-Apr-20 21:29N 53°27' E 014°35'0 0.0
2017-Apr-20 20:59N 53°27' E 014°35'0 0.0
2017-Apr-20 20:29N 53°27' E 014°35'0 0.0
2017-Apr-20 19:56N 53°27' E 014°35'0 0.0
2017-Apr-20 19:29N 53°27' E 014°35'0 0.0
2017-Apr-20 18:59N 53°27' E 014°35'0 0.0
2017-Apr-20 18:29N 53°27' E 014°35'0 0.0
2017-Apr-20 17:59N 53°27' E 014°35'0 0.0
2017-Apr-20 17:29N 53°27' E 014°35'0 0.0
2017-Apr-20 16:59N 53°27' E 014°35'0 0.0
2017-Apr-20 16:29N 53°27' E 014°35'0 0.0
2017-Apr-20 15:55N 53°27' E 014°35'0 0.0
2017-Apr-20 15:29N 53°27' E 014°35'0 0.0
2017-Apr-20 14:59N 53°27' E 014°35'0 0.0
2017-Apr-20 13:58N 53°27' E 014°35'0 0.0
2017-Apr-20 13:28N 53°27' E 014°35'0 0.0
2017-Apr-20 12:59N 53°27' E 014°35'0 0.0
2017-Apr-20 12:29N 53°27' E 014°35'0 0.0
2017-Apr-20 11:59N 53°27' E 014°35'0 0.0
2017-Apr-20 11:29N 53°27' E 014°35'0 0.0
2017-Apr-20 10:59N 53°27' E 014°35'0 0.0
2017-Apr-20 10:29N 53°27' E 014°35'0 0.0
2017-Apr-20 09:59N 53°27' E 014°35'0 0.0
2017-Apr-20 09:29N 53°27' E 014°35'0 0.0
2017-Apr-20 08:59N 53°27' E 014°35'0 0.0
2017-Apr-20 08:29N 53°27' E 014°35'0 0.0
2017-Apr-20 07:58N 53°27' E 014°35'0 0.0
2017-Apr-20 07:28N 53°27' E 014°35'0 0.0
2017-Apr-20 06:58N 53°27' E 014°35'0 0.0
2017-Apr-20 06:29N 53°27' E 014°35'0 0.0
2017-Apr-20 05:58N 53°27' E 014°35'0 0.0
2017-Apr-20 05:29N 53°27' E 014°35'0 0.0
2017-Apr-20 04:59N 53°27' E 014°35'0 0.0
2017-Apr-20 04:29N 53°27' E 014°35'0 0.0
2017-Apr-20 03:59N 53°27' E 014°35'0 0.0
2017-Apr-20 03:29N 53°27' E 014°35'0 0.0
2017-Apr-20 02:59N 53°27' E 014°35'0 0.0
2017-Apr-20 02:29N 53°27' E 014°35'0 0.0
2017-Apr-20 01:59N 53°27' E 014°35'0 0.0
2017-Apr-20 01:29N 53°27' E 014°35'0 0.0
2017-Apr-20 00:59N 53°27' E 014°35'0 0.0
2017-Apr-20 00:29N 53°27' E 014°35'0 0.0
2017-Apr-19 23:56N 53°27' E 014°35'0 0.0
2017-Apr-19 23:29N 53°27' E 014°35'0 0.0
2017-Apr-19 22:59N 53°27' E 014°35'0 0.0
2017-Apr-19 22:29N 53°27' E 014°35'0 0.0
2017-Apr-19 21:58N 53°27' E 014°35'0 0.0
2017-Apr-19 21:29N 53°27' E 014°35'0 0.0
2017-Apr-19 20:56N 53°27' E 014°35'0 0.0
2017-Apr-19 20:26N 53°27' E 014°35'0 0.0
2017-Apr-19 19:58N 53°27' E 014°35'0 0.0
2017-Apr-19 19:29N 53°27' E 014°35'0 0.0
2017-Apr-19 18:59N 53°27' E 014°35'0 0.0
2017-Apr-19 18:29N 53°27' E 014°35'0 0.0
2017-Apr-19 17:58N 53°27' E 014°35'0 0.0
2017-Apr-19 17:29N 53°27' E 014°35'0 0.0
2017-Apr-19 16:59N 53°27' E 014°35'0 0.0
2017-Apr-19 16:28N 53°27' E 014°35'0 0.0
2017-Apr-19 15:58N 53°27' E 014°35'0 0.0
2017-Apr-19 15:29N 53°27' E 014°35'0 0.0
2017-Apr-19 14:59N 53°27' E 014°35'0 0.0
2017-Apr-19 14:28N 53°27' E 014°35'0 0.2
2017-Apr-19 13:30N 53°26' E 014°35'2 4.5
2017-Apr-19 13:00N 53°24' E 014°37'0 0.0
2017-Apr-19 12:30N 53°24' E 014°37'0 0.0
2017-Apr-19 11:57N 53°24' E 014°37'0 0.0
2017-Apr-19 11:30N 53°24' E 014°37'0 0.0
2017-Apr-19 11:00N 53°24' E 014°37'0 0.0
2017-Apr-19 10:30N 53°24' E 014°37'0 0.0
2017-Apr-19 10:00N 53°24' E 014°37'0 0.0
2017-Apr-19 09:24N 53°24' E 014°37'  

Dump ship's entire track history